createdAt,value
2022-10-02T00:01:26.378Z,13.35
2022-10-02T00:04:18.104Z,13.28
2022-10-02T00:07:07.794Z,13.16
2022-10-02T00:10:00.897Z,13.17
2022-10-02T00:12:52.373Z,13.02
2022-10-02T00:15:43.208Z,13.01
2022-10-02T00:18:34.186Z,13.11
2022-10-02T00:21:33.456Z,13.18
2022-10-02T00:24:27.149Z,13.04
2022-10-02T00:27:32.782Z,12.53
2022-10-02T00:30:20.889Z,13.16
2022-10-02T00:33:19.739Z,13.29
2022-10-02T00:36:21.217Z,13.27
2022-10-02T00:39:22.482Z,13.27
2022-10-02T00:45:16.329Z,13.09
2022-10-02T00:48:22.986Z,13.18
2022-10-02T00:51:20.348Z,13.11
2022-10-02T00:54:24.109Z,13.07
2022-10-02T00:57:21.189Z,13.07
2022-10-02T01:00:13.327Z,13.04
2022-10-02T01:03:12.402Z,13.10
2022-10-02T01:06:00.323Z,13.11
2022-10-02T01:08:48.200Z,13.08
2022-10-02T01:11:36.688Z,13.08
2022-10-02T01:14:33.009Z,13.16
2022-10-02T01:17:26.014Z,13.26
2022-10-02T01:20:17.575Z,12.60
2022-10-02T01:23:27.918Z,13.25
2022-10-02T01:26:17.350Z,13.17
2022-10-02T01:29:05.622Z,13.17
2022-10-02T01:31:53.741Z,13.17
2022-10-02T01:34:42.661Z,13.11
2022-10-02T01:37:32.282Z,12.98
2022-10-02T01:40:26.580Z,13.04
2022-10-02T01:43:18.395Z,13.03
2022-10-02T01:46:20.013Z,13.03
2022-10-02T01:49:22.501Z,12.95
2022-10-02T01:52:22.799Z,13.02
2022-10-02T01:55:23.010Z,13.09
2022-10-02T01:58:24.188Z,13.20
2022-10-02T02:01:23.364Z,13.24
2022-10-02T02:04:25.050Z,13.13
2022-10-02T02:07:18.886Z,13.16
2022-10-02T02:10:18.543Z,13.09
2022-10-02T02:13:15.084Z,13.12
2022-10-02T02:16:11.456Z,13.12
2022-10-02T02:19:04.855Z,13.16
2022-10-02T02:22:00.066Z,13.19
2022-10-02T02:24:53.276Z,13.09
2022-10-02T02:27:43.706Z,13.15
2022-10-02T02:30:34.124Z,13.05
2022-10-02T02:33:28.560Z,13.00
2022-10-02T02:36:20.160Z,13.02
2022-10-02T02:39:13.014Z,13.12
2022-10-02T02:42:04.141Z,13.07
2022-10-02T02:44:56.695Z,13.20
2022-10-02T02:47:49.744Z,13.35
2022-10-02T02:50:43.744Z,13.38
2022-10-02T02:53:39.094Z,13.34
2022-10-02T02:56:29.235Z,13.69
2022-10-02T02:59:20.374Z,13.74
2022-10-02T03:02:08.351Z,13.56
2022-10-02T03:04:56.300Z,13.74
2022-10-02T03:07:51.824Z,13.68
2022-10-02T03:10:51.019Z,13.50
2022-10-02T03:13:51.862Z,13.38
2022-10-02T03:16:50.846Z,13.24
2022-10-02T03:19:47.213Z,13.23
2022-10-02T03:22:45.331Z,13.27
2022-10-02T03:25:41.169Z,13.28
2022-10-02T03:28:54.221Z,12.72
2022-10-02T03:31:44.162Z,13.01
2022-10-02T03:34:33.743Z,12.94
2022-10-02T03:37:22.124Z,13.27
2022-10-02T03:40:10.729Z,13.15
2022-10-02T03:42:59.963Z,13.21
2022-10-02T03:45:51.470Z,13.12
2022-10-02T03:48:39.931Z,13.06
2022-10-02T03:51:27.808Z,13.04
2022-10-02T03:54:18.624Z,12.95
2022-10-02T03:57:08.493Z,12.88
2022-10-02T04:00:04.598Z,12.86
2022-10-02T04:02:57.684Z,12.68
2022-10-02T04:05:50.748Z,12.77
2022-10-02T04:08:43.417Z,12.87
2022-10-02T04:11:36.182Z,12.81
2022-10-02T04:14:29.828Z,12.86
2022-10-02T04:17:23.456Z,12.84
2022-10-02T04:20:16.328Z,12.84
2022-10-02T04:23:11.835Z,12.88
2022-10-02T04:26:05.989Z,12.80
2022-10-02T04:29:00.632Z,12.86
2022-10-02T04:31:54.740Z,12.65
2022-10-02T04:34:44.265Z,12.78
2022-10-02T04:37:59.700Z,12.76
2022-10-02T04:41:00.466Z,12.75
2022-10-02T04:44:02.153Z,12.67
2022-10-02T04:47:09.130Z,12.70
2022-10-02T04:50:17.106Z,12.74
2022-10-02T04:53:35.046Z,12.70
2022-10-02T04:56:43.179Z,12.71
2022-10-02T04:59:45.099Z,12.73
2022-10-02T05:02:52.793Z,12.68
2022-10-02T05:06:03.598Z,12.79
2022-10-02T05:09:00.617Z,12.67
2022-10-02T05:12:17.060Z,12.76
2022-10-02T05:15:31.359Z,12.79
2022-10-02T05:18:42.669Z,12.84
2022-10-02T05:22:05.421Z,12.74
2022-10-02T05:25:08.798Z,12.76
2022-10-02T05:28:15.548Z,12.74
2022-10-02T05:31:16.665Z,12.52
2022-10-02T05:34:18.318Z,12.69
2022-10-02T05:37:23.021Z,12.75
2022-10-02T05:40:19.314Z,12.76
2022-10-02T05:43:11.811Z,12.75
2022-10-02T05:46:06.487Z,12.81
2022-10-02T05:48:58.709Z,12.72
2022-10-02T05:51:55.578Z,12.77
2022-10-02T05:54:52.345Z,12.76
2022-10-02T05:57:44.079Z,12.74
2022-10-02T06:00:37.773Z,12.73
2022-10-02T06:03:32.176Z,12.70
2022-10-02T06:06:03.841Z,12.74
2022-10-02T06:08:38.907Z,12.74
2022-10-02T06:11:12.613Z,12.48
2022-10-02T06:13:46.101Z,12.82
2022-10-02T06:16:20.653Z,12.74
2022-10-02T06:18:55.399Z,12.77
2022-10-02T06:21:32.105Z,12.75
2022-10-02T06:24:05.671Z,12.71
2022-10-02T06:26:40.911Z,12.78
2022-10-02T06:29:18.352Z,12.84
2022-10-02T06:31:52.074Z,12.79
2022-10-02T06:34:19.827Z,12.77
2022-10-02T06:37:08.345Z,12.72
2022-10-02T06:40:17.791Z,12.71
2022-10-02T06:42:55.890Z,12.76
2022-10-02T06:45:31.945Z,12.76
2022-10-02T06:48:06.958Z,12.74
2022-10-02T06:50:51.893Z,12.73
2022-10-02T06:53:39.522Z,12.69
2022-10-02T06:56:24.326Z,12.70
2022-10-02T06:59:08.411Z,12.75
2022-10-02T07:01:50.956Z,12.81
2022-10-02T07:04:34.944Z,12.78
2022-10-02T07:07:18.599Z,12.75
2022-10-02T07:09:59.791Z,12.71
2022-10-02T07:12:40.626Z,12.73
2022-10-02T07:15:41.195Z,12.74
2022-10-02T07:18:19.577Z,12.79
2022-10-02T07:20:55.988Z,12.80
2022-10-02T07:23:49.625Z,12.78
2022-10-02T07:26:43.232Z,12.77
2022-10-02T07:29:37.980Z,12.76
2022-10-02T07:32:48.727Z,12.75
2022-10-02T07:35:46.091Z,12.71
2022-10-02T07:38:45.069Z,12.74
2022-10-02T07:41:38.302Z,12.60
2022-10-02T07:44:16.503Z,12.64
2022-10-02T07:46:56.030Z,12.65
2022-10-02T07:49:41.858Z,12.68
2022-10-02T07:52:21.006Z,12.68
2022-10-02T07:55:07.253Z,12.66
2022-10-02T07:57:41.635Z,12.74
2022-10-02T08:00:14.920Z,12.68
2022-10-02T08:02:50.988Z,12.75
2022-10-02T08:05:23.278Z,12.77
2022-10-02T08:07:55.474Z,12.72
2022-10-02T08:10:26.657Z,12.70
2022-10-02T08:13:04.648Z,12.70
2022-10-02T08:15:36.025Z,12.72
2022-10-02T08:18:33.099Z,12.74
2022-10-02T08:21:03.933Z,12.75
2022-10-02T08:23:37.559Z,12.73
2022-10-02T08:26:10.813Z,12.75
2022-10-02T08:28:43.780Z,12.65
2022-10-02T08:31:12.549Z,12.72
2022-10-02T08:33:40.553Z,12.71
2022-10-02T08:36:39.854Z,12.87
2022-10-02T08:39:23.039Z,12.76
2022-10-02T08:42:24.872Z,12.99
2022-10-02T08:45:17.984Z,12.87
2022-10-02T08:48:30.202Z,12.73
2022-10-02T08:51:25.546Z,12.86
2022-10-02T08:54:27.538Z,12.82
2022-10-02T08:57:13.084Z,12.86
2022-10-02T09:00:05.365Z,12.82
2022-10-02T09:03:12.609Z,12.92
2022-10-02T09:06:11.064Z,13.06
2022-10-02T09:09:24.368Z,13.08
2022-10-02T09:12:26.858Z,13.05
2022-10-02T09:15:00.124Z,13.05
2022-10-02T09:17:54.994Z,13.08
2022-10-02T09:20:42.747Z,13.01
2022-10-02T09:23:48.417Z,12.98
2022-10-02T09:26:25.570Z,12.93
2022-10-02T09:29:34.955Z,12.93
2022-10-02T09:32:43.121Z,13.29
2022-10-02T09:35:52.545Z,13.31
2022-10-02T09:39:09.608Z,13.02
2022-10-02T09:42:08.407Z,12.89
2022-10-02T09:45:01.540Z,12.38
2022-10-02T09:48:05.110Z,12.93
2022-10-02T09:51:05.327Z,12.94
2022-10-02T09:54:10.159Z,13.01
2022-10-02T09:57:15.692Z,12.98
2022-10-02T10:00:16.859Z,12.92
2022-10-02T10:03:24.008Z,13.00
2022-10-02T10:06:24.463Z,13.06
2022-10-02T10:09:34.906Z,13.13
2022-10-02T10:12:41.438Z,13.14
2022-10-02T10:15:46.477Z,13.75
2022-10-02T10:18:58.248Z,13.75
2022-10-02T10:21:56.912Z,13.66
2022-10-02T10:24:47.152Z,13.68
2022-10-02T10:27:59.751Z,13.61
2022-10-02T10:30:57.104Z,13.47
2022-10-02T10:34:02.555Z,13.58
2022-10-02T10:37:08.913Z,13.57
2022-10-02T10:40:09.798Z,13.44
2022-10-02T10:43:16.805Z,13.72
2022-10-02T10:46:10.026Z,13.22
2022-10-02T10:48:57.560Z,13.11
2022-10-02T10:51:32.446Z,13.08
2022-10-02T10:54:40.584Z,13.04
2022-10-02T10:57:16.692Z,13.18
2022-10-02T11:00:04.221Z,13.20
2022-10-02T11:03:27.682Z,13.41
2022-10-02T11:06:23.062Z,13.37
2022-10-02T11:09:17.725Z,13.51
2022-10-02T11:12:07.508Z,13.60
2022-10-02T11:14:55.369Z,13.69
2022-10-02T11:17:56.492Z,13.55
2022-10-02T11:20:47.334Z,13.58
2022-10-02T11:23:39.633Z,13.58
2022-10-02T11:26:32.385Z,13.54
2022-10-02T11:29:16.424Z,13.57
2022-10-02T11:31:59.976Z,13.44
2022-10-02T11:34:53.268Z,13.37
2022-10-02T11:37:32.603Z,13.43
2022-10-02T11:40:18.508Z,13.38
2022-10-02T11:43:11.244Z,13.51
2022-10-02T11:45:55.137Z,13.47
2022-10-02T11:48:48.846Z,13.51
2022-10-02T11:51:41.912Z,13.39
2022-10-02T11:54:25.313Z,13.39
2022-10-02T11:57:15.098Z,13.43
2022-10-02T12:00:06.650Z,13.47
2022-10-02T12:02:47.925Z,13.41
2022-10-02T12:05:25.407Z,13.38
2022-10-02T12:08:01.641Z,13.38
2022-10-02T12:10:39.395Z,13.44
2022-10-02T12:13:29.810Z,13.38
2022-10-02T12:16:06.744Z,13.29
2022-10-02T12:18:46.583Z,13.41
2022-10-02T12:21:47.806Z,13.47
2022-10-02T12:24:45.334Z,13.56
2022-10-02T12:27:22.100Z,13.61
2022-10-02T12:30:08.644Z,13.63
2022-10-02T12:32:53.819Z,13.58
2022-10-02T12:35:31.410Z,13.61
2022-10-02T12:38:16.126Z,13.74
2022-10-02T12:40:54.172Z,13.73
2022-10-02T12:44:01.261Z,13.80
2022-10-02T12:46:48.692Z,13.73
2022-10-02T12:49:34.099Z,13.65
2022-10-02T12:52:50.587Z,13.77
2022-10-02T12:56:09.147Z,13.73
2022-10-02T12:58:48.012Z,13.71
2022-10-02T13:01:46.831Z,13.69
2022-10-02T13:04:43.755Z,13.72
2022-10-02T13:07:48.683Z,13.80
2022-10-02T13:10:22.053Z,13.76
2022-10-02T13:13:06.101Z,13.75
2022-10-02T13:15:47.980Z,13.71
2022-10-02T13:18:34.758Z,13.75
2022-10-02T13:21:13.456Z,13.77
2022-10-02T13:23:47.384Z,13.79
2022-10-02T13:26:27.377Z,13.74
2022-10-02T13:29:22.263Z,13.79
2022-10-02T13:32:03.104Z,13.75
2022-10-02T13:34:44.907Z,13.71
2022-10-02T13:37:20.079Z,13.73
2022-10-02T13:40:04.003Z,13.72
2022-10-02T13:42:42.752Z,13.74
2022-10-02T13:45:19.482Z,13.70
2022-10-02T13:47:57.630Z,13.63
2022-10-02T13:50:38.172Z,13.59
2022-10-02T13:53:20.251Z,13.74
2022-10-02T13:55:53.795Z,13.79
2022-10-02T13:58:39.965Z,13.64
2022-10-02T14:01:19.800Z,13.68
2022-10-02T14:04:04.475Z,13.55
2022-10-02T14:06:39.567Z,13.58
2022-10-02T14:09:23.358Z,13.57
2022-10-02T14:12:12.057Z,13.68
2022-10-02T14:15:02.578Z,13.72
2022-10-02T14:17:39.220Z,13.68
2022-10-02T14:20:22.348Z,14.02
2022-10-02T14:23:08.215Z,13.93
2022-10-02T14:25:49.672Z,13.93
2022-10-02T14:28:36.055Z,13.86
2022-10-02T14:31:18.194Z,13.93
2022-10-02T14:34:15.789Z,13.93
2022-10-02T14:36:55.687Z,14.08
2022-10-02T14:39:35.612Z,14.11
2022-10-02T14:42:32.260Z,14.08
2022-10-02T14:45:22.049Z,13.74
2022-10-02T14:48:15.644Z,13.63
2022-10-02T14:51:03.724Z,13.56
2022-10-02T14:54:00.124Z,13.53
2022-10-02T14:56:53.239Z,13.55
2022-10-02T15:00:02.299Z,13.56
2022-10-02T15:02:48.771Z,13.51
2022-10-02T15:05:38.832Z,13.52
2022-10-02T15:08:14.294Z,13.52
2022-10-02T15:10:42.957Z,13.28
2022-10-02T15:13:24.008Z,13.68
2022-10-02T15:16:15.354Z,13.96
2022-10-02T15:18:49.458Z,14.01
2022-10-02T15:21:26.747Z,13.96
2022-10-02T15:23:58.407Z,13.92
2022-10-02T15:26:36.840Z,13.90
2022-10-02T15:29:21.156Z,13.68
2022-10-02T15:32:19.963Z,13.88
2022-10-02T15:34:59.384Z,13.95
2022-10-02T15:37:33.011Z,13.87
2022-10-02T15:40:12.902Z,13.89
2022-10-02T15:42:56.269Z,13.81
2022-10-02T15:45:50.824Z,13.90
2022-10-02T15:48:36.122Z,13.89
2022-10-02T15:51:16.157Z,13.91
2022-10-02T15:53:59.447Z,13.92
2022-10-02T15:56:48.956Z,13.92
2022-10-02T15:59:40.272Z,13.80
2022-10-02T16:02:25.819Z,13.80
2022-10-02T16:05:08.881Z,13.83
2022-10-02T16:07:59.455Z,13.81
2022-10-02T16:10:36.785Z,13.81
2022-10-02T16:13:22.348Z,13.78
2022-10-02T16:15:53.540Z,13.84
2022-10-02T16:18:50.650Z,13.80
2022-10-02T16:21:43.779Z,13.77
2022-10-02T16:24:38.131Z,13.70
2022-10-02T16:27:28.970Z,13.72
2022-10-02T16:30:08.182Z,13.72
2022-10-02T16:32:48.412Z,13.71
2022-10-02T16:36:02.362Z,13.68
2022-10-02T16:38:42.249Z,13.72
2022-10-02T16:41:24.415Z,13.60
2022-10-02T16:44:03.395Z,13.54
2022-10-02T16:46:37.943Z,13.61
2022-10-02T16:49:20.540Z,13.57
2022-10-02T16:51:56.421Z,13.60
2022-10-02T16:54:35.350Z,13.59
2022-10-02T16:57:07.941Z,13.59
2022-10-02T16:59:43.996Z,13.65
2022-10-02T17:02:19.708Z,13.65
2022-10-02T17:04:59.857Z,13.61
2022-10-02T17:07:37.341Z,13.59
2022-10-02T17:10:19.281Z,13.60
2022-10-02T17:12:53.409Z,13.61
2022-10-02T17:15:26.449Z,13.58
2022-10-02T17:18:09.525Z,13.55
2022-10-02T17:20:44.284Z,13.62
2022-10-02T17:23:19.815Z,13.49
2022-10-02T17:25:58.419Z,13.66
2022-10-02T17:28:36.765Z,13.29
2022-10-02T17:31:26.260Z,13.71
2022-10-02T17:33:58.004Z,13.67
2022-10-02T17:36:35.741Z,13.67
2022-10-02T17:39:36.262Z,13.58
2022-10-02T17:42:14.037Z,13.63
2022-10-02T17:44:55.869Z,13.54
2022-10-02T17:47:53.587Z,13.52
2022-10-02T17:50:48.353Z,13.43
2022-10-02T17:53:40.812Z,13.39
2022-10-02T17:56:29.444Z,13.38
2022-10-02T17:59:18.929Z,13.36
2022-10-02T18:01:53.971Z,13.23
2022-10-02T18:04:29.259Z,13.18
2022-10-02T18:07:13.126Z,13.12
2022-10-02T18:10:00.644Z,12.97
2022-10-02T18:12:42.310Z,12.90
2022-10-02T18:15:51.513Z,12.84
2022-10-02T18:18:29.562Z,12.76
2022-10-02T18:21:13.952Z,12.55
2022-10-02T18:24:03.973Z,12.58
2022-10-02T18:26:43.768Z,12.60
2022-10-02T18:29:31.461Z,12.58
2022-10-02T18:32:32.036Z,12.52
2022-10-02T18:35:15.122Z,12.46
2022-10-02T18:37:54.671Z,12.49
2022-10-02T18:40:28.799Z,12.56
2022-10-02T18:43:26.112Z,12.75
2022-10-02T18:46:04.330Z,12.84
2022-10-02T18:48:56.484Z,13.00
2022-10-02T18:51:37.881Z,13.13
2022-10-02T18:54:23.245Z,13.15
2022-10-02T18:56:59.830Z,13.08
2022-10-02T18:59:38.923Z,13.29
2022-10-02T19:02:20.555Z,13.34
2022-10-02T19:05:20.506Z,13.37
2022-10-02T19:07:52.985Z,13.40
2022-10-02T19:10:27.117Z,13.26
2022-10-02T19:12:57.534Z,13.38
2022-10-02T19:15:28.765Z,13.44
2022-10-02T19:18:01.530Z,13.44
2022-10-02T19:20:40.758Z,13.41
2022-10-02T19:23:10.543Z,13.17
2022-10-02T19:25:38.105Z,13.51
2022-10-02T19:28:07.400Z,13.52
2022-10-02T19:30:36.064Z,13.49
2022-10-02T19:33:08.768Z,13.53
2022-10-02T19:35:44.064Z,13.55
2022-10-02T19:38:23.028Z,13.56
2022-10-02T19:40:54.979Z,13.55
2022-10-02T19:43:27.999Z,13.56
2022-10-02T19:45:59.393Z,13.52
2022-10-02T19:48:28.479Z,13.59
2022-10-02T19:50:59.944Z,13.59
2022-10-02T19:53:34.022Z,13.53
2022-10-02T19:56:05.041Z,13.46
2022-10-02T19:58:37.044Z,13.53
2022-10-02T20:01:07.329Z,13.57
2022-10-02T20:03:57.130Z,13.52
2022-10-02T20:06:48.305Z,13.50
2022-10-02T20:09:40.267Z,13.49
2022-10-02T20:12:32.171Z,13.48
2022-10-02T20:15:52.147Z,13.46
2022-10-02T20:18:39.223Z,13.48
2022-10-02T20:21:35.823Z,13.47
2022-10-02T20:24:35.329Z,13.46
2022-10-02T20:27:29.165Z,13.46
2022-10-02T20:30:19.387Z,13.44
2022-10-02T20:33:14.639Z,13.45
2022-10-02T20:36:07.713Z,13.44
2022-10-02T20:39:00.706Z,13.39
2022-10-02T20:41:55.648Z,13.42
2022-10-02T20:44:43.697Z,13.39
2022-10-02T20:48:12.272Z,13.36
2022-10-02T20:51:07.004Z,13.39
2022-10-02T20:54:27.475Z,13.33
2022-10-02T20:58:00.081Z,13.30
2022-10-02T21:01:02.538Z,13.14
2022-10-02T21:04:14.023Z,13.11
2022-10-02T21:07:28.642Z,13.17
2022-10-02T21:10:42.114Z,13.17
2022-10-02T21:14:12.235Z,13.19
2022-10-02T21:17:19.086Z,13.22
2022-10-02T21:20:52.072Z,13.12
2022-10-02T21:24:18.126Z,13.19
2022-10-02T21:27:49.091Z,13.24
2022-10-02T21:30:46.232Z,13.21
2022-10-02T21:33:41.250Z,13.17
2022-10-02T21:36:33.742Z,13.16
2022-10-02T21:39:59.853Z,13.14
2022-10-02T21:43:15.132Z,13.15
2022-10-02T21:46:26.526Z,13.17
2022-10-02T21:50:17.923Z,13.11
2022-10-02T21:53:50.490Z,13.05
2022-10-02T21:57:20.088Z,12.93
2022-10-02T22:00:15.349Z,12.99
2022-10-02T22:03:38.639Z,12.82
2022-10-02T22:06:39.076Z,12.87
2022-10-02T22:09:36.954Z,12.76
2022-10-02T22:12:41.979Z,12.84
2022-10-02T22:15:39.658Z,12.80
2022-10-02T22:18:46.632Z,12.75
2022-10-02T22:21:50.917Z,12.74
2022-10-02T22:25:07.770Z,12.74
2022-10-02T22:28:05.629Z,12.73
2022-10-02T22:31:26.393Z,12.74
2022-10-02T22:34:36.034Z,12.68
2022-10-02T22:37:50.980Z,12.73
2022-10-02T22:40:48.530Z,12.65
2022-10-02T22:43:45.705Z,12.62
2022-10-02T22:46:47.468Z,12.45
2022-10-02T22:49:41.864Z,12.67
2022-10-02T22:52:42.197Z,12.55
2022-10-02T22:55:32.205Z,12.58
2022-10-02T22:58:25.093Z,12.59
2022-10-02T23:01:20.441Z,12.54
2022-10-02T23:04:21.446Z,12.54
2022-10-02T23:07:17.320Z,12.55
2022-10-02T23:10:16.848Z,12.53
2022-10-02T23:13:12.378Z,12.60
2022-10-02T23:16:07.436Z,12.60
2022-10-02T23:19:01.761Z,12.61
2022-10-02T23:21:53.667Z,12.58
2022-10-02T23:24:50.622Z,12.61
2022-10-02T23:27:46.323Z,12.60
2022-10-02T23:30:40.265Z,12.64
2022-10-02T23:33:38.038Z,12.37
2022-10-02T23:36:30.216Z,12.61
2022-10-02T23:39:24.792Z,12.63
2022-10-02T23:42:19.300Z,12.61
2022-10-02T23:45:16.606Z,12.57
2022-10-02T23:48:08.071Z,12.44
2022-10-02T23:51:08.065Z,12.41
2022-10-02T23:54:28.955Z,12.37
2022-10-02T23:57:41.925Z,12.33
